Time;durP1;ratioP1;P1;durP2;ratioP2;P2;SDS_P1;SDS_P2;PMS_P1;PMS_P2;Temp;Humidity;BMP_temperature;BMP_pressure;BME280_temperature;BME280_humidity;BME280_pressure;Samples;Min_cycle;Max_cycle;Signal;HPM_P1;HPM_P2
2023/01/05 02:03:03;;;;;;;;;;;6.80;99.90;;;;;;5701706;22;19925;-78
2023/01/05 02:05:30;;;;;;;;;;;6.80;99.90;;;;;;5043940;28;19897;-80
2023/01/05 02:07:55;;;;;;;;;;;6.80;99.90;;;;;;5044886;28;19893;-80
2023/01/05 02:10:47;;;;;;;;;;;6.80;99.90;;;;;;5062047;28;19900;-80
2023/01/05 02:13:16;;;;;;;;;;;6.80;99.90;;;;;;5044534;28;19924;-80
2023/01/05 02:16:00;;;;;;;;;;;6.70;99.90;;;;;;5044693;28;19899;-80
2023/01/05 02:18:26;;;;;;;;;;;6.80;99.90;;;;;;5044318;28;19901;-80
2023/01/05 02:21:04;;;;;;;;;;;6.90;99.90;;;;;;5060597;28;19909;-80
2023/01/05 02:23:37;;;;;;;;;;;6.70;99.90;;;;;;5061469;28;19905;-79
2023/01/05 02:26:22;;;;;;;;;;;6.70;99.90;;;;;;5061701;28;19956;-80
2023/01/05 02:29:07;;;;;;;;;;;6.80;99.90;;;;;;5043903;28;20309;-80
2023/01/05 02:31:36;;;;;;;;;;;6.70;99.90;;;;;;5060670;28;19900;-81
2023/01/05 02:34:22;;;;;;;;;;;6.80;99.90;;;;;;5044265;28;19893;-80
2023/01/05 02:36:52;;;;;;;;;;;6.80;99.90;;;;;;5061500;28;19900;-79
2023/01/05 02:39:24;;;;;;;;;;;6.80;99.90;;;;;;5061250;28;19901;-80
2023/01/05 02:41:56;;;;;;;;;;;6.80;99.90;;;;;;5043742;28;19965;-80
2023/01/05 02:44:21;;;;;;;;;;;6.80;99.90;;;;;;5061448;28;19893;-80
2023/01/05 03:36:51;;;;;;;;;;;6.60;99.90;;;;;;5076409;28;19916;-80
2023/01/05 03:39:18;;;;;;;;;;;6.70;99.90;;;;;;5079426;28;19924;-81
2023/01/05 03:41:43;;;;;;;;;;;6.70;99.90;;;;;;5079022;28;19958;-80
2023/01/05 03:44:09;;;;;;;;;;;6.60;99.90;;;;;;5079349;28;19901;-80
2023/01/05 03:46:35;;;;;;;;;;;6.60;99.90;;;;;;5078743;28;19900;-81
2023/01/05 03:49:01;;;;;;;;;;;6.70;99.90;;;;;;5079380;28;19916;-81
2023/01/05 03:51:26;;;;;;;;;;;6.50;99.90;;;;;;5079017;28;19900;-81
2023/01/05 03:53:52;;;;;;;;;;;6.60;99.90;;;;;;5079471;28;19900;-80
2023/01/05 03:56:18;;;;;;;;;;;6.70;99.90;;;;;;5079058;28;19893;-80
2023/01/05 03:58:43;;;;;;;;;;;6.70;99.90;;;;;;5078930;28;19901;-80
2023/01/05 04:01:09;;;;;;;;;;;6.70;99.90;;;;;;5061820;28;19893;-81
2023/01/05 04:03:35;;;;;;;;;;;6.50;99.90;;;;;;5079123;28;19893;-81
2023/01/05 04:06:00;;;;;;;;;;;6.50;99.90;;;;;;5078561;28;19892;-80
2023/01/05 04:08:26;;;;;;;;;;;6.60;99.90;;;;;;5079414;28;19905;-81
2023/01/05 04:10:52;;;;;;;;;;;6.70;99.90;;;;;;5079664;28;19893;-81
2023/01/05 04:13:18;;;;;;;;;;;6.40;99.90;;;;;;5062616;28;19893;-81
2023/01/05 04:15:44;;;;;;;;;;;6.50;99.90;;;;;;5062623;28;19892;-82
2023/01/05 04:18:12;;;;;;;;;;;6.60;99.90;;;;;;5079367;28;19899;-80
2023/01/05 04:20:39;;;;;;;;;;;6.60;99.90;;;;;;5079756;28;19931;-80
2023/01/05 04:23:05;;;;;;;;;;;6.60;99.90;;;;;;5062248;28;19915;-81
2023/01/05 04:25:31;;;;;;;;;;;6.60;99.90;;;;;;5078937;28;19905;-81
2023/01/05 04:27:56;;;;;;;;;;;6.50;99.90;;;;;;5061964;28;19916;-81
2023/01/05 04:30:22;;;;;;;;;;;6.60;99.90;;;;;;5061951;28;19915;-82
2023/01/05 04:32:47;;;;;;;;;;;6.70;99.90;;;;;;5062291;28;19912;-81
2023/01/05 04:35:13;;;;;;;;;;;6.70;99.90;;;;;;5079120;28;19900;-81
2023/01/05 04:37:39;;;;;;;;;;;6.60;99.90;;;;;;5079257;28;19971;-80
2023/01/05 04:40:05;;;;;;;;;;;6.60;99.90;;;;;;5062159;28;19901;-81
2023/01/05 04:42:31;;;;;;;;;;;6.70;99.90;;;;;;5079452;28;19909;-81
2023/01/05 06:00:09;;;;;;;;;;;6.50;99.90;;;;;;5228024;22;19953;-80
2023/01/05 06:02:34;;;;;;;;;;;6.50;99.90;;;;;;5042235;28;19897;-80
2023/01/05 06:05:00;;;;;;;;;;;6.50;99.90;;;;;;5061085;28;19920;-80
2023/01/05 06:07:25;;;;;;;;;;;6.40;99.90;;;;;;5042667;28;19894;-79
2023/01/05 06:09:51;;;;;;;;;;;6.40;99.90;;;;;;5060900;28;19909;-80
2023/01/05 06:12:17;;;;;;;;;;;6.30;99.90;;;;;;5059271;28;19897;-81
2023/01/05 06:14:42;;;;;;;;;;;6.30;99.90;;;;;;5061257;28;19909;-80
2023/01/05 06:17:08;;;;;;;;;;;6.20;99.90;;;;;;5043568;28;19893;-80
2023/01/05 06:19:34;;;;;;;;;;;6.00;99.90;;;;;;5059451;28;19928;-80
2023/01/05 06:21:59;;;;;;;;;;;6.20;99.90;;;;;;5061119;28;19905;-80
2023/01/05 06:24:25;;;;;;;;;;;6.10;99.90;;;;;;5044809;28;19915;-81
2023/01/05 06:26:53;;;;;;;;;;;6.00;99.90;;;;;;5061627;28;19934;-81
2023/01/05 06:29:19;;;;;;;;;;;6.00;99.90;;;;;;5042667;28;19912;-80
2023/01/05 06:31:46;;;;;;;;;;;6.00;99.90;;;;;;5044516;28;19909;-80
2023/01/05 06:34:12;;;;;;;;;;;6.00;99.90;;;;;;5041699;28;19900;-80
2023/01/05 06:36:38;;;;;;;;;;;6.10;99.90;;;;;;5043222;28;19916;-80
2023/01/05 06:39:03;;;;;;;;;;;5.90;99.90;;;;;;5044018;28;19908;-81
2023/01/05 06:41:29;;;;;;;;;;;6.00;99.90;;;;;;5060985;28;19905;-79
2023/01/05 07:50:14;;;;;;;;;;;6.90;99.90;;;;;;5688141;22;19932;-79
2023/01/05 07:52:39;;;;;;;;;;;7.00;99.90;;;;;;5041319;28;19897;-79
2023/01/05 07:55:05;;;;;;;;;;;6.90;99.90;;;;;;5041979;28;19893;-80
2023/01/05 07:57:31;;;;;;;;;;;7.00;99.90;;;;;;5059719;28;19947;-80
2023/01/05 07:59:56;;;;;;;;;;;6.90;99.90;;;;;;5042448;28;19917;-81
2023/01/05 08:02:22;;;;;;;;;;;7.10;99.90;;;;;;5058993;28;19893;-80
2023/01/05 08:04:48;;;;;;;;;;;7.00;99.90;;;;;;5042578;28;19899;-80
2023/01/05 08:07:14;;;;;;;;;;;7.20;99.90;;;;;;5058585;28;19893;-79
2023/01/05 08:15:28;;;;;;;;;;;7.50;99.90;;;;;;4997949;28;19917;-80
2023/01/05 08:17:54;;;;;;;;;;;7.50;99.90;;;;;;5033621;28;19905;-79
2023/01/05 08:20:19;;;;;;;;;;;7.80;99.90;;;;;;5041913;28;19901;-81
2023/01/05 08:22:51;;;;;;;;;;;8.00;99.90;;;;;;5058994;28;19893;-81
2023/01/05 08:25:17;;;;;;;;;;;8.30;99.90;;;;;;5042003;28;19909;-80
2023/01/05 08:27:43;;;;;;;;;;;8.50;99.90;;;;;;5058578;28;19916;-80
2023/01/05 08:30:10;;;;;;;;;;;8.70;99.90;;;;;;5041972;28;19893;-80
2023/01/05 08:32:35;;;;;;;;;;;8.70;99.90;;;;;;5058308;28;19909;-79
2023/01/05 08:35:01;;;;;;;;;;;8.90;99.90;;;;;;5054769;28;19911;-79
2023/01/05 08:37:27;;;;;;;;;;;8.90;99.90;;;;;;5034326;28;19905;-79
2023/01/05 08:39:52;;;;;;;;;;;9.10;99.90;;;;;;5035555;28;19995;-79
2023/01/05 08:42:18;;;;;;;;;;;9.40;99.90;;;;;;5054525;28;19944;-79
2023/01/05 08:44:44;;;;;;;;;;;9.50;99.90;;;;;;5034137;28;19906;-79
2023/01/05 08:47:09;;;;;;;;;;;9.60;99.90;;;;;;5036855;28;19912;-78
2023/01/05 08:49:35;;;;;;;;;;;9.70;99.90;;;;;;5032839;28;19912;-79
2023/01/05 08:52:01;;;;;;;;;;;9.70;99.90;;;;;;5034661;28;19918;-79
2023/01/05 08:54:29;;;;;;;;;;;9.70;99.90;;;;;;5044391;28;19893;-79
2023/01/05 08:56:55;;;;;;;;;;;9.60;99.90;;;;;;5063291;28;19901;-80
2023/01/05 08:59:21;;;;;;;;;;;9.80;99.90;;;;;;5063291;28;19907;-80
2023/01/05 09:01:47;;;;;;;;;;;9.80;99.90;;;;;;5045992;28;19894;-80
2023/01/05 09:04:12;;;;;;;;;;;9.90;99.90;;;;;;5046245;28;19894;-80
2023/01/05 09:06:38;;;;;;;;;;;9.80;99.90;;;;;;5046155;28;19957;-80
2023/01/05 09:09:04;;;;;;;;;;;10.00;99.90;;;;;;5046092;28;19909;-80
2023/01/05 09:11:29;;;;;;;;;;;10.00;99.90;;;;;;5063084;28;19908;-80
2023/01/05 09:13:57;;;;;;;;;;;10.10;99.90;;;;;;5046080;28;19901;-80
2023/01/05 09:16:28;;;;;;;;;;;10.10;99.90;;;;;;5062565;28;19916;-80
2023/01/05 09:18:53;;;;;;;;;;;10.00;99.90;;;;;;5061006;28;19901;-80
2023/01/05 09:21:19;;;;;;;;;;;10.10;99.90;;;;;;5045693;28;19900;-79
2023/01/05 09:23:45;;;;;;;;;;;10.10;99.90;;;;;;5062122;28;20011;-79
2023/01/05 09:26:11;;;;;;;;;;;10.20;99.90;;;;;;5061927;28;19893;-79
2023/01/05 09:28:38;;;;;;;;;;;10.00;99.90;;;;;;5045312;28;19909;-79
2023/01/05 09:31:08;;;;;;;;;;;10.00;99.90;;;;;;5045452;28;19893;-80
2023/01/05 09:33:33;;;;;;;;;;;9.90;99.90;;;;;;5044943;28;19894;-79
2023/01/05 09:35:59;;;;;;;;;;;10.00;99.90;;;;;;5045103;28;19900;-80
2023/01/05 09:38:25;;;;;;;;;;;10.00;99.90;;;;;;5044960;28;19913;-80
2023/01/05 10:13:50;;;;;;;;;;;9.40;99.90;;;;;;5081295;28;19984;-79
2023/01/05 10:16:16;;;;;;;;;;;9.50;99.90;;;;;;5080472;28;19920;-80
2023/01/05 10:18:42;;;;;;;;;;;9.50;99.90;;;;;;5063129;28;19913;-80
2023/01/05 10:21:46;;;;;;;;;;;9.60;99.90;;;;;;5061479;28;19916;-79
2023/01/05 10:24:24;;;;;;;;;;;9.70;99.90;;;;;;4982447;28;19914;-79
2023/01/05 10:26:58;;;;;;;;;;;10.00;99.90;;;;;;4981113;28;19932;-79
2023/01/05 10:29:28;;;;;;;;;;;10.10;99.90;;;;;;5029218;28;19968;-79
2023/01/05 10:32:03;;;;;;;;;;;10.10;99.90;;;;;;5078624;28;19905;-79
2023/01/05 10:34:28;;;;;;;;;;;10.30;99.90;;;;;;5061141;28;19888;-79
2023/01/05 10:37:07;;;;;;;;;;;10.30;99.90;;;;;;5059049;28;19981;-79
2023/01/05 10:42:17;;;;;;;;;;;10.40;99.90;;;;;;5055033;28;19927;-79
2023/01/05 10:44:42;;;;;;;;;;;10.50;99.90;;;;;;5039946;28;19905;-79
2023/01/05 10:47:10;;;;;;;;;;;10.50;99.90;;;;;;5057936;28;19916;-79
2023/01/05 10:49:36;;;;;;;;;;;10.40;99.90;;;;;;5040515;28;19972;-79
2023/01/05 10:52:02;;;;;;;;;;;10.40;99.90;;;;;;5057609;28;19980;-78
2023/01/05 10:54:36;;;;;;;;;;;10.50;99.90;;;;;;5057873;28;19919;-79
2023/01/05 10:57:21;;;;;;;;;;;10.60;99.90;;;;;;5041547;28;19932;-79
2023/01/05 10:59:57;;;;;;;;;;;10.60;99.90;;;;;;5058808;28;19971;-79
2023/01/05 11:02:24;;;;;;;;;;;10.80;99.90;;;;;;5058991;28;19896;-78
2023/01/05 11:04:50;;;;;;;;;;;10.70;99.90;;;;;;5059576;28;19893;-79
2023/01/05 11:07:17;;;;;;;;;;;10.80;99.90;;;;;;5058772;28;19893;-79
2023/01/05 11:09:45;;;;;;;;;;;10.80;99.90;;;;;;5059889;28;19893;-79
2023/01/05 11:12:19;;;;;;;;;;;10.90;99.90;;;;;;5042191;28;19900;-80
2023/01/05 11:14:48;;;;;;;;;;;11.00;99.90;;;;;;5056374;28;19912;-78
2023/01/05 11:17:21;;;;;;;;;;;10.90;99.90;;;;;;5037790;28;19892;-79
2023/01/05 11:19:49;;;;;;;;;;;11.10;99.90;;;;;;5039315;28;19908;-80
2023/01/05 11:22:27;;;;;;;;;;;11.10;99.90;;;;;;5042098;28;19893;-79
2023/01/05 11:24:53;;;;;;;;;;;11.00;99.90;;;;;;5058124;28;19900;-79
2023/01/05 11:27:18;;;;;;;;;;;11.00;99.90;;;;;;5059206;28;19909;-79
2023/01/05 11:29:44;;;;;;;;;;;11.10;99.90;;;;;;5059955;28;19893;-79
2023/01/05 11:32:11;;;;;;;;;;;11.00;99.90;;;;;;5059466;28;19917;-79
2023/01/05 11:34:40;;;;;;;;;;;11.10;99.90;;;;;;5059256;28;19889;-80
2023/01/05 11:37:12;;;;;;;;;;;11.20;99.90;;;;;;5059863;28;19913;-80
2023/01/05 14:36:44;;;;;;;;;;;10.30;99.90;;;;;;5367546;22;19905;-80
2023/01/05 14:39:16;;;;;;;;;;;10.20;99.90;;;;;;5079914;28;19912;-80
2023/01/05 14:41:42;;;;;;;;;;;10.20;99.90;;;;;;5063708;28;19895;-80
2023/01/05 14:44:18;;;;;;;;;;;10.10;99.90;;;;;;5077619;28;19916;-79
2023/01/05 14:46:46;;;;;;;;;;;10.10;99.90;;;;;;5062772;28;19927;-80
2023/01/05 14:49:24;;;;;;;;;;;10.00;99.90;;;;;;5063057;28;19915;-81
2023/01/05 14:51:52;;;;;;;;;;;9.90;99.90;;;;;;5063295;28;19963;-81
2023/01/05 14:54:32;;;;;;;;;;;9.90;99.90;;;;;;5063790;28;19912;-81
2023/01/05 14:57:29;;;;;;;;;;;9.80;99.90;;;;;;5062139;28;19955;-81
2023/01/05 14:59:59;;;;;;;;;;;9.60;99.90;;;;;;5047184;28;19901;-81
2023/01/05 15:02:28;;;;;;;;;;;9.60;99.90;;;;;;5080414;28;19955;-81
2023/01/05 15:04:58;;;;;;;;;;;9.50;99.90;;;;;;5079574;28;19916;-81
2023/01/05 15:07:35;;;;;;;;;;;9.30;99.90;;;;;;5080518;28;19893;-80
2023/01/05 15:10:19;;;;;;;;;;;9.40;99.90;;;;;;5063010;28;19924;-80
2023/01/05 15:13:00;;;;;;;;;;;9.20;99.90;;;;;;5063567;28;19964;-80
2023/01/05 15:15:39;;;;;;;;;;;9.30;99.90;;;;;;5063516;28;19893;-81
2023/01/05 15:18:07;;;;;;;;;;;9.20;99.90;;;;;;5079952;28;19924;-80
2023/01/05 15:20:33;;;;;;;;;;;9.10;99.90;;;;;;5061357;28;19908;-80
2023/01/05 15:23:13;;;;;;;;;;;9.10;99.90;;;;;;5063548;28;19893;-81
2023/01/05 15:25:48;;;;;;;;;;;9.00;99.90;;;;;;5080709;28;19900;-80
2023/01/05 15:28:17;;;;;;;;;;;9.20;99.90;;;;;;5063448;28;19893;-80
2023/01/05 15:31:01;;;;;;;;;;;9.20;99.90;;;;;;5063492;28;19893;-80
2023/01/05 15:33:27;;;;;;;;;;;9.10;99.90;;;;;;5059199;28;19901;-80
2023/01/05 15:35:55;;;;;;;;;;;9.30;99.90;;;;;;5043419;28;19931;-80
2023/01/05 15:38:25;;;;;;;;;;;9.30;99.90;;;;;;5042021;28;19921;-80
2023/01/05 15:40:58;;;;;;;;;;;9.20;99.90;;;;;;5043364;28;19893;-80
2023/01/05 15:43:24;;;;;;;;;;;9.20;99.90;;;;;;5043086;28;19893;-80
2023/01/05 15:45:52;;;;;;;;;;;9.20;99.90;;;;;;5042792;28;19897;-80
2023/01/05 15:48:22;;;;;;;;;;;9.00;99.90;;;;;;5060109;28;19893;-80
2023/01/05 15:50:49;;;;;;;;;;;9.00;99.90;;;;;;5042733;28;19893;-80
2023/01/05 15:53:26;;;;;;;;;;;9.00;99.90;;;;;;5043142;28;19916;-80
2023/01/05 15:55:52;;;;;;;;;;;9.10;99.90;;;;;;5058536;28;19908;-80
2023/01/05 15:58:18;;;;;;;;;;;9.10;99.90;;;;;;5059591;28;19909;-80
2023/01/05 16:00:57;;;;;;;;;;;9.10;99.90;;;;;;5042181;28;19943;-79
2023/01/05 16:03:42;;;;;;;;;;;9.20;99.90;;;;;;5059808;28;19893;-80
2023/01/05 16:06:21;;;;;;;;;;;9.10;99.90;;;;;;5042921;28;19905;-81
2023/01/05 16:08:55;;;;;;;;;;;9.00;99.90;;;;;;5042991;28;19901;-81
2023/01/05 16:11:20;;;;;;;;;;;8.70;99.90;;;;;;5042761;28;19893;-80
2023/01/05 16:14:12;;;;;;;;;;;8.60;99.90;;;;;;5042578;28;19900;-80
2023/01/05 16:16:39;;;;;;;;;;;8.50;99.90;;;;;;5055513;28;19893;-80
2023/01/05 16:19:12;;;;;;;;;;;8.30;99.90;;;;;;5042744;28;19901;-80
2023/01/05 16:21:42;;;;;;;;;;;8.10;99.90;;;;;;5042941;28;19905;-80
2023/01/05 16:24:14;;;;;;;;;;;8.00;99.90;;;;;;5042706;28;19917;-80
2023/01/05 16:26:40;;;;;;;;;;;7.90;99.90;;;;;;5059611;28;19894;-80
2023/01/05 16:29:25;;;;;;;;;;;7.90;99.90;;;;;;5042491;28;19921;-80
2023/01/05 16:48:51;;;;;;;;;;;7.40;99.90;;;;;;5655165;22;19917;-80
2023/01/05 16:51:19;;;;;;;;;;;7.30;99.90;;;;;;5058689;28;19909;-79
2023/01/05 16:53:47;;;;;;;;;;;7.20;99.90;;;;;;5042116;28;19893;-80
2023/01/05 16:56:41;;;;;;;;;;;7.00;99.90;;;;;;5059109;28;19893;-77
2023/01/05 16:59:25;;;;;;;;;;;7.10;99.90;;;;;;5058743;28;19944;-82
2023/01/05 17:01:51;;;;;;;;;;;7.10;99.90;;;;;;5041696;28;19900;-81
2023/01/05 17:04:17;;;;;;;;;;;7.10;99.90;;;;;;5058841;28;19909;-81
2023/01/05 17:06:44;;;;;;;;;;;7.40;99.90;;;;;;5041795;28;19899;-80
2023/01/05 17:09:15;;;;;;;;;;;7.50;99.90;;;;;;5041863;28;19911;-80
2023/01/05 17:11:41;;;;;;;;;;;7.60;99.90;;;;;;5059430;28;19952;-80
2023/01/05 17:14:08;;;;;;;;;;;7.70;99.90;;;;;;5045936;28;19893;-80
2023/01/05 17:16:34;;;;;;;;;;;7.90;99.90;;;;;;5045390;28;19972;-80
2023/01/05 17:18:59;;;;;;;;;;;8.10;99.90;;;;;;5062328;28;19908;-79
2023/01/05 17:21:27;;;;;;;;;;;8.20;99.90;;;;;;5062264;28;19893;-80
2023/01/05 17:23:55;;;;;;;;;;;8.20;99.90;;;;;;5044936;28;19980;-78
2023/01/05 17:26:28;;;;;;;;;;;8.40;99.90;;;;;;5045178;28;19900;-79
2023/01/05 17:28:58;;;;;;;;;;;8.40;99.90;;;;;;5045182;28;19892;-80
2023/01/05 17:31:24;;;;;;;;;;;8.40;99.90;;;;;;5062226;28;19893;-80
2023/01/05 17:33:49;;;;;;;;;;;8.50;99.90;;;;;;5044527;28;19916;-79
2023/01/05 17:36:16;;;;;;;;;;;8.50;99.90;;;;;;5044845;28;19951;-79
2023/01/05 17:38:42;;;;;;;;;;;8.60;99.90;;;;;;5061616;28;19955;-80
2023/01/05 17:41:08;;;;;;;;;;;8.70;99.90;;;;;;5043376;28;19897;-80
2023/01/05 17:43:34;;;;;;;;;;;8.60;99.90;;;;;;5044373;28;19893;-79
2023/01/05 17:45:59;;;;;;;;;;;8.70;99.90;;;;;;5062146;28;19900;-79
2023/01/05 17:48:25;;;;;;;;;;;8.80;99.90;;;;;;5044277;28;19911;-79
2023/01/05 17:50:51;;;;;;;;;;;8.80;99.90;;;;;;5045088;28;19893;-79
2023/01/05 17:53:17;;;;;;;;;;;8.80;99.90;;;;;;5045464;28;19893;-80
2023/01/05 17:55:42;;;;;;;;;;;8.90;99.90;;;;;;5062089;28;19899;-80
2023/01/05 17:58:10;;;;;;;;;;;8.90;99.90;;;;;;5061927;28;19921;-79
2023/01/05 18:00:40;;;;;;;;;;;9.00;99.90;;;;;;5062114;28;19908;-80
2023/01/05 18:03:08;;;;;;;;;;;8.80;99.90;;;;;;5044673;28;19893;-79
2023/01/05 18:05:34;;;;;;;;;;;8.90;99.90;;;;;;5044407;28;20405;-79
2023/01/05 18:08:00;;;;;;;;;;;8.90;99.90;;;;;;5061674;28;19917;-80
2023/01/05 18:10:27;;;;;;;;;;;8.90;99.90;;;;;;5044550;28;19893;-80
2023/01/05 18:12:52;;;;;;;;;;;9.00;99.90;;;;;;5044669;28;19916;-80
2023/01/05 18:15:18;;;;;;;;;;;9.00;99.90;;;;;;5061083;28;19909;-80
2023/01/05 18:17:44;;;;;;;;;;;9.20;99.90;;;;;;5061234;28;19900;-79
2023/01/05 18:20:11;;;;;;;;;;;9.20;99.90;;;;;;5061403;28;19968;-79
2023/01/05 18:22:40;;;;;;;;;;;9.30;99.90;;;;;;5059974;28;19956;-80
2023/01/05 18:25:06;;;;;;;;;;;9.30;99.90;;;;;;5060710;28;19900;-79
2023/01/05 18:27:34;;;;;;;;;;;9.30;99.90;;;;;;5059385;28;19956;-79
2023/01/05 18:30:01;;;;;;;;;;;9.10;99.90;;;;;;5061363;28;19909;-80
2023/01/05 18:58:52;;;;;;;;;;;9.00;99.90;;;;;;5616069;23;19906;-80
2023/01/05 19:01:18;;;;;;;;;;;9.00;99.90;;;;;;5079276;28;19920;-79
2023/01/05 19:03:44;;;;;;;;;;;9.10;99.90;;;;;;5063414;28;19893;-79
2023/01/05 19:06:12;;;;;;;;;;;9.00;99.90;;;;;;5080181;28;19919;-79
2023/01/05 19:08:38;;;;;;;;;;;9.00;99.90;;;;;;5079764;28;20350;-79
2023/01/05 19:11:17;;;;;;;;;;;9.00;99.90;;;;;;5063420;28;19893;-79
2023/01/05 19:13:44;;;;;;;;;;;9.00;99.90;;;;;;5062895;28;19908;-80
2023/01/05 19:16:10;;;;;;;;;;;9.00;99.90;;;;;;5063018;28;19916;-80
2023/01/05 19:18:36;;;;;;;;;;;9.30;99.90;;;;;;5062964;28;19938;-79
2023/01/05 19:21:02;;;;;;;;;;;9.30;99.90;;;;;;5061389;28;19892;-80
2023/01/05 19:23:27;;;;;;;;;;;9.40;99.90;;;;;;5063228;28;19980;-80
2023/01/05 19:25:58;;;;;;;;;;;9.50;99.90;;;;;;5063728;28;19892;-80
2023/01/05 19:28:24;;;;;;;;;;;9.50;99.90;;;;;;5063073;28;19899;-80
2023/01/05 19:30:50;;;;;;;;;;;9.50;99.90;;;;;;5079836;28;19920;-80
2023/01/05 19:33:15;;;;;;;;;;;9.50;99.90;;;;;;5079054;28;19895;-79
2023/01/05 19:35:44;;;;;;;;;;;9.40;99.90;;;;;;5061607;28;19925;-80
2023/01/05 19:38:10;;;;;;;;;;;9.30;99.90;;;;;;5079458;28;19893;-80
2023/01/05 19:40:36;;;;;;;;;;;9.40;99.90;;;;;;5079864;28;19943;-79
2023/01/05 19:43:02;;;;;;;;;;;9.40;99.90;;;;;;5079361;28;19893;-79
2023/01/05 19:45:28;;;;;;;;;;;9.40;99.90;;;;;;5079312;28;19957;-80
2023/01/05 19:47:54;;;;;;;;;;;9.20;99.90;;;;;;5062694;28;19916;-80
2023/01/05 19:50:20;;;;;;;;;;;9.40;99.90;;;;;;5079726;28;19927;-80
2023/01/05 19:52:46;;;;;;;;;;;9.40;99.90;;;;;;5080124;28;19956;-80
2023/01/05 19:55:11;;;;;;;;;;;9.30;99.90;;;;;;5062401;28;19919;-80
2023/01/05 19:57:37;;;;;;;;;;;9.40;99.90;;;;;;5062404;28;19900;-80
2023/01/05 20:00:03;;;;;;;;;;;9.20;99.90;;;;;;5062248;28;19911;-81
2023/01/05 20:02:29;;;;;;;;;;;8.70;99.90;;;;;;5062562;28;19932;-80
2023/01/05 20:04:55;;;;;;;;;;;9.10;99.90;;;;;;5062608;28;19893;-80
2023/01/05 20:07:21;;;;;;;;;;;9.10;99.90;;;;;;5078773;28;19900;-80
2023/01/05 20:09:48;;;;;;;;;;;9.10;99.90;;;;;;5079572;28;20402;-80
2023/01/05 20:12:14;;;;;;;;;;;9.10;99.90;;;;;;5079401;28;19920;-80
2023/01/05 20:14:40;;;;;;;;;;;9.10;99.90;;;;;;5062233;28;19893;-79
2023/01/05 20:17:07;;;;;;;;;;;9.10;99.90;;;;;;5078764;28;19916;-80
2023/01/05 20:19:37;;;;;;;;;;;9.00;99.90;;;;;;5078786;28;19925;-79
2023/01/05 20:22:04;;;;;;;;;;;8.90;99.90;;;;;;5062303;28;19913;-80
2023/01/05 20:24:31;;;;;;;;;;;8.80;99.90;;;;;;5079578;28;19909;-79
2023/01/05 20:26:59;;;;;;;;;;;8.90;99.90;;;;;;5061823;28;19928;-80
2023/01/05 20:29:26;;;;;;;;;;;8.80;99.90;;;;;;5079460;28;19915;-81
2023/01/05 21:11:39;;;;;;;;;;;8.30;99.90;;;;;;6203595;22;20716;31
2023/01/05 21:14:05;;;;;;;;;;;8.40;99.90;;;;;;5040281;28;19905;-80
2023/01/05 21:16:33;;;;;;;;;;;8.40;99.90;;;;;;5042411;28;19929;-81
2023/01/05 21:18:59;;;;;;;;;;;8.50;99.90;;;;;;5025882;28;19901;-81
2023/01/05 21:21:25;;;;;;;;;;;8.60;99.90;;;;;;5041297;28;19901;-79
2023/01/05 21:23:51;;;;;;;;;;;8.70;99.90;;;;;;5025640;28;19909;-80
2023/01/05 21:26:18;;;;;;;;;;;8.70;99.90;;;;;;5025173;28;19893;-80
2023/01/05 21:28:44;;;;;;;;;;;8.70;99.90;;;;;;5042236;28;19901;-79
2023/01/05 21:31:11;;;;;;;;;;;8.80;99.90;;;;;;5041380;28;19916;-80
2023/01/05 21:33:37;;;;;;;;;;;8.90;99.90;;;;;;5025591;28;19901;-80
2023/01/05 21:36:03;;;;;;;;;;;8.90;99.90;;;;;;5025966;28;19905;-80
2023/01/05 21:38:29;;;;;;;;;;;8.90;99.90;;;;;;5025428;28;19894;-81
2023/01/05 21:41:02;;;;;;;;;;;8.90;99.90;;;;;;5025781;28;19916;-81
2023/01/05 21:43:28;;;;;;;;;;;8.80;99.90;;;;;;5025923;28;19932;-81
2023/01/05 21:45:54;;;;;;;;;;;8.80;99.90;;;;;;5042259;28;19893;-82
2023/01/05 21:48:19;;;;;;;;;;;8.70;99.90;;;;;;5042305;28;19894;-80
2023/01/05 22:25:17;;;;;;;;;;;8.50;99.90;;;;;;6091312;22;19924;-80
2023/01/05 22:27:42;;;;;;;;;;;8.30;99.90;;;;;;5037445;28;19898;-79
2023/01/05 22:30:08;;;;;;;;;;;8.50;99.90;;;;;;5038918;28;19896;-79
2023/01/05 22:32:34;;;;;;;;;;;8.50;99.90;;;;;;5038795;28;19913;-80
2023/01/05 22:35:00;;;;;;;;;;;7.70;99.90;;;;;;5039556;28;19909;-81
2023/01/05 22:37:26;;;;;;;;;;;8.50;99.90;;;;;;5040316;28;19913;-81
2023/01/05 22:39:51;;;;;;;;;;;8.30;99.90;;;;;;5039346;28;19898;-81
2023/01/05 22:42:17;;;;;;;;;;;8.50;99.90;;;;;;5040355;28;19890;-82
2023/01/05 22:44:43;;;;;;;;;;;8.40;99.90;;;;;;5038403;28;20437;-80
2023/01/05 22:47:09;;;;;;;;;;;8.40;99.90;;;;;;5037628;28;19913;-79
2023/01/05 22:49:38;;;;;;;;;;;8.40;99.90;;;;;;5032669;28;19905;-80
2023/01/05 22:52:04;;;;;;;;;;;8.40;99.90;;;;;;5034985;28;19893;-80
2023/01/05 22:54:30;;;;;;;;;;;8.40;99.90;;;;;;5041377;28;19901;-80
2023/01/05 22:56:56;;;;;;;;;;;8.40;99.90;;;;;;5040560;28;19913;-79
2023/01/05 22:59:22;;;;;;;;;;;8.40;99.90;;;;;;5040700;28;19908;-80
2023/01/05 23:01:48;;;;;;;;;;;8.40;99.90;;;;;;5040724;28;19893;-79
2023/01/05 23:04:14;;;;;;;;;;;8.20;99.90;;;;;;5040756;28;19932;-80
2023/01/05 23:06:40;;;;;;;;;;;8.40;99.90;;;;;;5040582;28;19905;-79
2023/01/05 23:09:07;;;;;;;;;;;8.20;99.90;;;;;;5041204;28;19965;-80
2023/01/05 23:11:34;;;;;;;;;;;8.40;99.90;;;;;;5040921;28;19893;-80
2023/01/05 23:14:01;;;;;;;;;;;8.40;99.90;;;;;;5041200;28;19913;-80
2023/01/05 23:16:26;;;;;;;;;;;8.30;99.90;;;;;;5040723;28;19916;-80
2023/01/05 23:18:53;;;;;;;;;;;8.20;99.90;;;;;;5040830;28;19902;-81
2023/01/05 23:21:19;;;;;;;;;;;8.10;99.90;;;;;;5040484;28;19893;-81
2023/01/05 23:23:45;;;;;;;;;;;8.20;99.90;;;;;;5040482;28;19916;-80
2023/01/05 23:26:12;;;;;;;;;;;7.90;99.90;;;;;;5040124;28;19931;-80
2023/01/05 23:28:37;;;;;;;;;;;8.10;99.90;;;;;;5040205;28;19913;-79
2023/01/05 23:31:03;;;;;;;;;;;8.00;99.90;;;;;;5040263;28;19901;-79
2023/01/05 23:33:31;;;;;;;;;;;7.90;99.90;;;;;;5040130;28;19900;-81
2023/01/05 23:35:57;;;;;;;;;;;7.80;99.90;;;;;;5040740;28;19893;-80
2023/01/05 23:38:23;;;;;;;;;;;7.80;99.90;;;;;;5040294;28;19920;-79
2023/01/05 23:40:50;;;;;;;;;;;7.70;99.90;;;;;;5039718;28;19951;-80
2023/01/05 23:43:17;;;;;;;;;;;7.70;99.90;;;;;;5040087;28;19894;-80
2023/01/05 23:45:46;;;;;;;;;;;7.80;99.90;;;;;;5040605;28;19894;-80
2023/01/05 23:48:12;;;;;;;;;;;7.80;99.90;;;;;;5039907;28;19914;-80
2023/01/05 23:50:42;;;;;;;;;;;7.70;99.90;;;;;;5040391;28;19956;-80
2023/01/05 23:53:08;;;;;;;;;;;7.60;99.90;;;;;;5040441;28;19893;-80
2023/01/05 23:55:34;;;;;;;;;;;7.60;99.90;;;;;;5040242;28;19893;-80
2023/01/05 23:57:59;;;;;;;;;;;7.40;99.90;;;;;;5039747;28;19912;-80
